Time;durP1;ratioP1;P1;durP2;ratioP2;P2;SDS_P1;SDS_P2;PMS_P1;PMS_P2;Temp;Humidity;BMP_temperature;BMP_pressure;BME280_temperature;BME280_humidity;BME280_pressure;Samples;Min_cycle;Max_cycle;Signal;HPM_P1;HPM_P2
2022/03/02 00:01:49;;;;;;;17.70;7.20;;;9.50;42.20;;;;;;5029198;28;20400;-82
2022/03/02 00:04:14;;;;;;;21.27;8.25;;;9.50;42.30;;;;;;5047483;28;20033;-82
2022/03/02 00:06:40;;;;;;;21.20;7.68;;;9.40;42.10;;;;;;5047168;28;20056;-82
2022/03/02 00:09:06;;;;;;;23.95;7.38;;;9.50;42.30;;;;;;5048204;28;20032;-80
2022/03/02 00:11:34;;;;;;;19.88;7.50;;;9.40;42.20;;;;;;5048377;28;20032;-83
2022/03/02 00:14:00;;;;;;;17.10;7.22;;;9.40;42.20;;;;;;5048489;28;20079;-81
2022/03/02 00:16:29;;;;;;;20.55;7.72;;;9.40;42.30;;;;;;5047300;28;20438;-82
2022/03/02 00:18:56;;;;;;;19.33;7.75;;;9.40;42.30;;;;;;5029794;28;20029;-82
2022/03/02 00:21:22;;;;;;;16.00;7.95;;;9.40;42.40;;;;;;5028078;28;20417;-83
2022/03/02 00:23:48;;;;;;;17.63;7.90;;;9.40;42.40;;;;;;5048376;28;20029;-82
2022/03/02 00:26:14;;;;;;;26.23;8.88;;;9.40;42.40;;;;;;5028884;28;20411;-82
2022/03/02 00:28:40;;;;;;;15.88;8.32;;;9.40;42.40;;;;;;5047632;28;20037;-82
2022/03/02 00:31:07;;;;;;;19.20;7.60;;;9.40;42.40;;;;;;5030360;28;20033;-82
2022/03/02 00:33:33;;;;;;;19.45;7.63;;;9.40;42.40;;;;;;5047262;28;20079;-82
2022/03/02 00:35:59;;;;;;;15.32;7.55;;;9.40;42.50;;;;;;5045251;28;20415;-83
2022/03/02 00:38:25;;;;;;;22.02;7.38;;;9.30;42.40;;;;;;5045748;28;20028;-82
2022/03/02 00:40:51;;;;;;;16.05;7.82;;;9.30;42.40;;;;;;5045449;28;20053;-80
2022/03/02 00:43:17;;;;;;;18.05;7.63;;;9.40;42.50;;;;;;5025191;28;20522;-82
2022/03/02 00:45:43;;;;;;;23.90;8.45;;;9.30;42.50;;;;;;5046534;28;20167;-82
2022/03/02 00:48:10;;;;;;;18.83;7.13;;;9.30;42.60;;;;;;5046983;28;20464;-81
2022/03/02 00:50:36;;;;;;;19.17;7.50;;;9.30;42.70;;;;;;5048006;28;20452;-81
2022/03/02 00:53:05;;;;;;;18.42;8.15;;;9.30;42.60;;;;;;5047210;28;20036;-82
2022/03/02 00:55:33;;;;;;;26.08;8.07;;;9.30;42.60;;;;;;5029504;28;20380;-80
2022/03/02 00:57:59;;;;;;;12.95;7.45;;;9.30;42.70;;;;;;5011990;28;20182;-82
2022/03/02 01:00:25;;;;;;;18.73;8.38;;;9.30;42.60;;;;;;5046058;28;20094;-82
2022/03/02 01:02:52;;;;;;;20.90;8.00;;;9.30;42.70;;;;;;5045394;28;20041;-82
2022/03/02 01:05:18;;;;;;;19.10;7.97;;;9.30;42.70;;;;;;5012888;28;20037;-82
2022/03/02 01:07:45;;;;;;;20.73;7.80;;;9.30;42.70;;;;;;5046397;28;20033;-82
2022/03/02 01:10:11;;;;;;;16.30;6.82;;;9.30;42.70;;;;;;5028400;28;20048;-81
2022/03/02 01:12:39;;;;;;;15.85;7.43;;;9.30;42.70;;;;;;5046741;28;20029;-82
2022/03/02 01:15:06;;;;;;;19.05;7.85;;;9.30;42.80;;;;;;5025280;28;20036;-82
2022/03/02 01:17:33;;;;;;;17.05;7.75;;;9.20;42.80;;;;;;5029896;28;20415;-81
2022/03/02 01:19:59;;;;;;;19.90;8.30;;;9.30;42.80;;;;;;5045503;28;20050;-80
2022/03/02 01:22:26;;;;;;;18.38;7.63;;;9.30;42.70;;;;;;5047779;28;20060;-84
2022/03/02 01:24:55;;;;;;;20.23;8.10;;;9.20;42.80;;;;;;5046480;28;20075;-85
2022/03/02 01:27:21;;;;;;;20.30;7.93;;;9.20;42.90;;;;;;5045255;28;20037;-81
2022/03/02 01:29:47;;;;;;;18.90;7.78;;;9.20;42.90;;;;;;5029032;28;20033;-79
2022/03/02 01:32:14;;;;;;;18.52;8.27;;;9.20;42.90;;;;;;5046057;28;20029;-81
2022/03/02 01:34:39;;;;;;;19.85;8.15;;;9.20;43.00;;;;;;5046333;28;20086;-79
2022/03/02 01:37:06;;;;;;;16.25;7.93;;;9.20;43.00;;;;;;5046094;28;20037;-80
2022/03/02 01:39:32;;;;;;;18.05;7.57;;;9.20;43.10;;;;;;5023276;28;20069;-81
2022/03/02 01:41:58;;;;;;;17.63;7.63;;;9.20;43.10;;;;;;5046660;28;20057;-80
2022/03/02 01:44:24;;;;;;;17.40;7.68;;;9.20;43.10;;;;;;5047252;28;20021;-81
2022/03/02 01:46:50;;;;;;;15.88;7.35;;;9.20;43.10;;;;;;5045045;28;20040;-80
2022/03/02 01:49:16;;;;;;;19.55;7.10;;;9.20;43.20;;;;;;5046484;28;20519;-80
2022/03/02 01:51:42;;;;;;;14.93;6.78;;;9.20;43.20;;;;;;5046015;28;20048;-80
2022/03/02 01:54:08;;;;;;;17.60;7.13;;;9.20;43.20;;;;;;5045213;28;20048;-80
2022/03/02 01:56:35;;;;;;;17.38;7.85;;;9.20;43.20;;;;;;5046608;28;20060;-80
2022/03/02 01:59:02;;;;;;;13.50;7.93;;;9.20;43.20;;;;;;5045405;28;20029;-81
2022/03/02 02:01:29;;;;;;;19.40;7.65;;;9.20;43.30;;;;;;5046022;28;20029;-80
2022/03/02 02:03:55;;;;;;;16.17;8.02;;;9.10;43.20;;;;;;5044735;28;20053;-80
2022/03/02 02:06:21;;;;;;;17.33;7.00;;;9.10;43.20;;;;;;5044677;28;20061;-83
2022/03/02 02:08:47;;;;;;;17.30;6.80;;;9.20;43.30;;;;;;5044389;28;20120;-81
2022/03/02 02:11:14;;;;;;;20.80;6.95;;;9.10;43.20;;;;;;5028515;28;20033;-81
2022/03/02 02:13:40;;;;;;;14.77;7.63;;;9.10;43.20;;;;;;5041905;28;20061;-80
2022/03/02 02:16:07;;;;;;;20.27;6.60;;;9.10;43.20;;;;;;5027990;28;20029;-80
2022/03/02 02:18:34;;;;;;;17.35;7.28;;;9.10;43.20;;;;;;5045926;28;20307;-80
2022/03/02 02:21:08;;;;;;;14.45;7.22;;;9.10;43.20;;;;;;5027604;28;20439;-81
2022/03/02 02:23:36;;;;;;;18.08;7.10;;;9.10;43.20;;;;;;5045702;28;20086;-81
2022/03/02 02:26:02;;;;;;;15.73;7.07;;;9.10;43.30;;;;;;5045857;28;20037;-82
2022/03/02 02:28:30;;;;;;;15.93;6.60;;;9.10;43.30;;;;;;5045006;28;20090;-81
2022/03/02 02:30:58;;;;;;;13.25;6.63;;;9.10;43.30;;;;;;5044255;28;20114;-80
2022/03/02 02:33:25;;;;;;;13.65;6.28;;;9.10;43.50;;;;;;5045219;28;20040;-79
2022/03/02 02:35:51;;;;;;;17.92;7.70;;;9.10;43.40;;;;;;5028383;28;20440;-79
2022/03/02 02:38:18;;;;;;;22.45;7.50;;;9.10;43.40;;;;;;5045434;28;20036;-79
2022/03/02 02:40:44;;;;;;;23.42;7.25;;;9.10;43.40;;;;;;5042690;28;20072;-80
2022/03/02 02:43:11;;;;;;;16.98;6.80;;;9.10;43.40;;;;;;5044785;28;20438;-79
2022/03/02 02:45:37;;;;;;;18.92;7.15;;;9.00;43.30;;;;;;5044860;28;20499;-79
2022/03/02 02:48:04;;;;;;;16.83;6.85;;;9.00;43.30;;;;;;5044788;28;20044;-79
2022/03/02 02:50:32;;;;;;;20.30;7.88;;;9.10;43.40;;;;;;5027205;28;20054;-79
2022/03/02 02:53:01;;;;;;;17.55;7.35;;;9.10;43.40;;;;;;5045862;28;20513;-79
2022/03/02 02:55:29;;;;;;;21.25;6.75;;;9.00;43.30;;;;;;5022792;28;20037;-79
2022/03/02 02:57:56;;;;;;;15.60;6.45;;;9.00;43.30;;;;;;5026346;28;20037;-79
2022/03/02 03:00:27;;;;;;;16.10;6.45;;;9.00;43.30;;;;;;5044568;28;20040;-80
2022/03/02 03:02:55;;;;;;;14.20;6.22;;;9.00;43.40;;;;;;5044340;28;20123;-81
2022/03/02 03:05:24;;;;;;;16.27;6.22;;;9.00;43.30;;;;;;5045306;28;20492;-80
2022/03/02 03:07:50;;;;;;;15.00;6.00;;;9.00;43.30;;;;;;5044553;28;20036;-78
2022/03/02 03:10:18;;;;;;;12.27;6.32;;;9.00;43.30;;;;;;5026439;28;20492;-80
2022/03/02 03:12:45;;;;;;;12.77;6.47;;;9.00;43.30;;;;;;5045263;28;20030;-78
2022/03/02 03:15:13;;;;;;;14.80;6.53;;;9.00;43.30;;;;;;5044573;28;20037;-80
2022/03/02 03:17:41;;;;;;;11.52;5.90;;;9.00;43.30;;;;;;5039817;28;20033;-81
2022/03/02 03:20:09;;;;;;;11.88;5.88;;;9.00;43.30;;;;;;5044989;28;21076;-80
2022/03/02 03:22:36;;;;;;;13.15;5.85;;;9.00;43.30;;;;;;5044615;28;20041;-80
2022/03/02 03:25:03;;;;;;;13.35;5.80;;;9.00;43.30;;;;;;5044062;28;20041;-81
2022/03/02 03:27:29;;;;;;;11.80;6.35;;;9.00;43.40;;;;;;5044038;28;20037;-79
2022/03/02 03:29:55;;;;;;;11.25;6.03;;;9.00;43.40;;;;;;5045795;28;20083;-79
2022/03/02 03:32:22;;;;;;;11.27;5.65;;;9.00;43.40;;;;;;5045400;28;20041;-80
2022/03/02 03:34:48;;;;;;;13.40;5.90;;;9.00;43.40;;;;;;5026218;28;20037;-80
2022/03/02 03:37:14;;;;;;;12.75;6.53;;;9.00;44.00;;;;;;5044356;28;20053;-79
2022/03/02 03:39:42;;;;;;;10.80;5.25;;;9.00;43.40;;;;;;5048541;28;20029;-79
2022/03/02 03:42:09;;;;;;;11.85;6.22;;;9.00;43.50;;;;;;4998817;28;20053;-78
2022/03/02 03:44:35;;;;;;;12.98;5.57;;;8.90;43.40;;;;;;5025566;28;20460;-79
2022/03/02 03:47:01;;;;;;;14.50;5.85;;;8.90;43.40;;;;;;5030307;28;20033;-86
2022/03/02 03:49:27;;;;;;;10.15;5.07;;;9.00;43.40;;;;;;5031667;28;20570;-85
2022/03/02 03:51:53;;;;;;;11.55;6.45;;;8.90;43.50;;;;;;5046645;28;20454;-87
2022/03/02 03:54:19;;;;;;;13.02;6.05;;;8.90;43.50;;;;;;5014121;28;20044;-84
2022/03/02 03:56:45;;;;;;;17.08;5.85;;;8.90;43.60;;;;;;5049000;28;20029;-89
2022/03/02 03:59:11;;;;;;;11.43;5.25;;;8.90;43.60;;;;;;5046932;28;20131;-85
2022/03/02 04:01:37;;;;;;;13.10;5.45;;;8.90;43.60;;;;;;5030164;28;20140;-87
2022/03/02 04:04:04;;;;;;;16.27;6.72;;;8.90;43.60;;;;;;5047642;28;20127;-86
2022/03/02 04:06:30;;;;;;;12.93;5.93;;;8.90;43.70;;;;;;5047565;28;20266;-84
2022/03/02 04:08:56;;;;;;;14.98;6.32;;;8.90;43.70;;;;;;5049069;28;20028;-79
2022/03/02 04:11:22;;;;;;;13.13;5.72;;;8.90;43.60;;;;;;5048063;28;20029;-88
2022/03/02 04:13:48;;;;;;;12.73;5.57;;;8.80;43.60;;;;;;5046111;28;20484;-87
2022/03/02 04:16:14;;;;;;;15.15;5.72;;;8.90;43.70;;;;;;5045339;28;20029;-86
2022/03/02 04:18:40;;;;;;;14.52;5.85;;;8.90;43.60;;;;;;5052169;28;20037;-87
2022/03/02 04:21:06;;;;;;;13.50;6.30;;;8.90;43.70;;;;;;5049780;28;20120;-89
2022/03/02 04:23:32;;;;;;;17.42;5.88;;;8.90;43.70;;;;;;5055808;28;20036;-88
2022/03/02 04:25:59;;;;;;;14.65;5.72;;;8.80;43.70;;;;;;5049330;28;20037;-90
2022/03/02 04:28:25;;;;;;;13.45;6.75;;;8.80;43.70;;;;;;5048280;28;20048;-88
2022/03/02 04:30:51;;;;;;;14.82;6.03;;;8.80;43.70;;;;;;5030897;28;20040;-86
2022/03/02 04:33:17;;;;;;;13.40;5.47;;;8.80;43.80;;;;;;5047535;28;20033;-86
2022/03/02 04:35:44;;;;;;;13.50;6.13;;;8.80;43.80;;;;;;5047294;28;20041;-89
2022/03/02 04:38:10;;;;;;;13.48;5.60;;;8.80;43.80;;;;;;5047299;28;20095;-84
2022/03/02 04:40:36;;;;;;;12.75;5.78;;;8.80;43.90;;;;;;5013260;28;20033;-87
2022/03/02 04:43:02;;;;;;;15.73;5.80;;;8.80;43.90;;;;;;5030318;28;20799;-86
2022/03/02 04:45:28;;;;;;;12.13;6.18;;;8.80;44.00;;;;;;5013658;28;20550;-82
2022/03/02 04:47:56;;;;;;;14.10;6.75;;;8.80;44.00;;;;;;5026125;28;20047;-83
2022/03/02 04:50:22;;;;;;;12.23;6.63;;;8.80;44.10;;;;;;5008332;28;20052;-83
2022/03/02 04:52:49;;;;;;;13.57;6.43;;;8.80;44.10;;;;;;5046869;28;20033;-84
2022/03/02 04:55:16;;;;;;;21.88;6.55;;;8.80;44.10;;;;;;5029124;28;20110;-84
2022/03/02 04:58:01;;;;;;;15.55;6.93;;;8.80;44.10;;;;;;5048092;28;20037;-82
2022/03/02 05:00:33;;;;;;;13.18;6.85;;;8.80;44.20;;;;;;5025524;28;20045;-82
2022/03/02 05:03:02;;;;;;;14.43;6.63;;;8.80;44.10;;;;;;5013489;28;20037;-84
2022/03/02 05:05:30;;;;;;;16.85;6.45;;;8.80;44.20;;;;;;5046577;28;20021;-85
2022/03/02 05:07:56;;;;;;;18.63;6.60;;;8.80;44.20;;;;;;5045861;28;20516;-83
2022/03/02 05:10:23;;;;;;;14.15;6.60;;;8.80;44.20;;;;;;5029138;28;20472;-86
2022/03/02 05:12:49;;;;;;;19.45;7.10;;;8.80;44.20;;;;;;5045610;28;20392;-85
2022/03/02 05:15:16;;;;;;;13.68;6.97;;;8.80;44.20;;;;;;5024332;28;20492;-86
2022/03/02 05:17:44;;;;;;;14.82;6.95;;;8.80;44.20;;;;;;5046962;28;20123;-84
2022/03/02 05:20:12;;;;;;;17.52;6.75;;;8.80;44.20;;;;;;5046188;28;20033;-85
2022/03/02 05:22:39;;;;;;;14.57;6.18;;;8.80;44.10;;;;;;5050548;28;20372;-91
2022/03/02 05:25:06;;;;;;;11.57;6.63;;;8.90;44.20;;;;;;5034093;28;20087;-92
2022/03/02 05:27:33;;;;;;;15.02;6.78;;;8.90;44.00;;;;;;5040709;28;20530;-89
2022/03/02 05:29:59;;;;;;;14.32;6.93;;;8.90;44.00;;;;;;5058048;28;20033;-93
2022/03/02 05:32:25;;;;;;;15.88;7.20;;;8.90;43.90;;;;;;5029708;28;20032;-94
2022/03/02 05:34:51;;;;;;;15.25;6.45;;;9.00;43.80;;;;;;5035021;28;20041;-85
2022/03/02 05:37:17;;;;;;;16.15;7.15;;;9.10;43.70;;;;;;5033620;28;20123;-94
2022/03/02 05:39:43;;;;;;;14.30;6.80;;;9.20;43.60;;;;;;5028765;28;20115;-90
2022/03/02 05:42:09;;;;;;;12.70;6.15;;;9.30;43.50;;;;;;5049482;28;20061;-93
2022/03/02 05:44:35;;;;;;;14.52;6.65;;;9.50;43.50;;;;;;5032036;28;20025;-89
2022/03/02 05:47:03;;;;;;;15.82;7.30;;;9.60;43.60;;;;;;5035597;28;20120;-88
2022/03/02 05:49:29;;;;;;;13.60;7.63;;;9.80;43.70;;;;;;5049392;28;20489;-84
2022/03/02 05:51:55;;;;;;;19.02;8.95;;;9.80;43.80;;;;;;5029107;28;20128;-85
2022/03/02 05:54:20;;;;;;;18.33;7.95;;;9.90;43.80;;;;;;5029000;28;20055;-90
2022/03/02 05:56:47;;;;;;;15.10;8.63;;;10.10;43.90;;;;;;5029770;28;21045;-83
2022/03/02 05:59:14;;;;;;;14.55;8.45;;;10.10;44.00;;;;;;5043933;28;20507;-86
2022/03/02 06:01:41;;;;;;;15.95;8.10;;;10.20;44.20;;;;;;5027159;28;20426;-86
2022/03/02 06:04:07;;;;;;;13.73;7.47;;;10.30;44.20;;;;;;5045517;28;20175;-83
2022/03/02 06:06:35;;;;;;;16.00;8.07;;;10.40;44.40;;;;;;5045708;28;20029;-86
2022/03/02 06:09:05;;;;;;;14.13;8.25;;;10.40;44.40;;;;;;5041587;28;20519;-87
2022/03/02 06:11:32;;;;;;;16.77;7.57;;;10.60;44.50;;;;;;5011966;28;20568;-84
2022/03/02 06:13:58;;;;;;;16.55;8.23;;;10.60;44.60;;;;;;5044167;28;20071;-85
2022/03/02 06:16:24;;;;;;;16.98;7.35;;;10.70;44.60;;;;;;5047014;28;20036;-79
2022/03/02 06:18:51;;;;;;;18.30;7.68;;;10.80;44.70;;;;;;5028334;28;20095;-82
2022/03/02 06:21:23;;;;;;;12.30;7.93;;;10.90;44.70;;;;;;5012263;28;20159;-81
2022/03/02 06:23:50;;;;;;;13.45;7.38;;;11.00;44.80;;;;;;5043462;28;20088;-83
2022/03/02 06:26:18;;;;;;;13.02;7.57;;;11.00;44.80;;;;;;5026670;28;20514;-82
2022/03/02 06:28:44;;;;;;;14.52;7.45;;;11.10;44.80;;;;;;5014857;28;20554;-82
2022/03/02 06:31:11;;;;;;;16.52;7.40;;;11.20;44.90;;;;;;5044802;28;20041;-83
2022/03/02 06:33:37;;;;;;;10.15;6.28;;;11.30;44.90;;;;;;5043704;28;20400;-82
2022/03/02 06:36:03;;;;;;;14.63;7.43;;;11.40;44.90;;;;;;5025623;28;20025;-81
2022/03/02 06:38:29;;;;;;;17.23;7.75;;;11.50;44.90;;;;;;5044521;28;20036;-80
2022/03/02 06:41:01;;;;;;;23.92;9.13;;;11.60;44.30;;;;;;5042712;28;20045;-82
2022/03/02 06:43:38;;;;;;;25.02;9.65;;;11.70;43.00;;;;;;5009550;28;20658;-83
2022/03/02 06:46:10;;;;;;;25.73;9.75;;;11.80;41.90;;;;;;5023007;28;20406;-83
2022/03/02 06:48:55;;;;;;;26.42;9.15;;;11.90;41.30;;;;;;5025278;28;20182;-81
2022/03/02 06:51:23;;;;;;;27.80;9.90;;;12.00;40.70;;;;;;5043970;28;20041;-81
2022/03/02 06:53:50;;;;;;;27.50;9.90;;;12.20;40.40;;;;;;5045717;28;20040;-81
2022/03/02 06:56:19;;;;;;;20.63;8.93;;;12.20;40.40;;;;;;5044719;28;20483;-82
2022/03/02 06:58:54;;;;;;;26.55;9.18;;;12.30;40.60;;;;;;5022130;28;20450;-80
2022/03/02 07:01:26;;;;;;;18.10;8.50;;;12.40;40.50;;;;;;5026695;28;20538;-89
2022/03/02 07:03:55;;;;;;;27.08;9.70;;;12.50;40.80;;;;;;5047966;28;20036;-91
2022/03/02 07:06:22;;;;;;;22.42;9.43;;;12.60;40.50;;;;;;5027799;28;20037;-90
2022/03/02 07:08:51;;;;;;;27.10;9.82;;;12.70;40.20;;;;;;5045455;28;21136;-86
2022/03/02 07:11:17;;;;;;;22.55;9.20;;;12.80;40.10;;;;;;4994952;28;20033;-91
2022/03/02 07:13:46;;;;;;;25.80;9.95;;;12.80;40.10;;;;;;5026948;28;20029;-91
2022/03/02 07:16:13;;;;;;;24.05;9.70;;;12.90;40.10;;;;;;5027418;28;20125;-91
2022/03/02 07:18:40;;;;;;;22.30;9.68;;;13.00;39.90;;;;;;5027006;28;20401;-92
2022/03/02 07:21:12;;;;;;;27.30;8.88;;;13.00;39.20;;;;;;5024702;28;20025;-91
2022/03/02 07:23:55;;;;;;;20.05;9.25;;;13.10;39.80;;;;;;5044288;28;20494;-92
2022/03/02 07:26:23;;;;;;;31.42;14.68;;;13.20;40.20;;;;;;5025999;28;20501;-91
2022/03/02 07:28:50;;;;;;;31.77;16.42;;;13.20;40.30;;;;;;5027917;28;20041;-88
2022/03/02 07:31:21;;;;;;;33.17;15.57;;;13.30;40.20;;;;;;5016134;28;20033;-90
2022/03/02 07:33:48;;;;;;;33.53;15.18;;;13.40;39.60;;;;;;5047420;28;20045;-82
2022/03/02 07:36:18;;;;;;;29.38;15.02;;;13.40;39.60;;;;;;5031183;28;20025;-88
2022/03/02 07:38:44;;;;;;;30.10;12.15;;;13.50;39.90;;;;;;5045342;28;20029;-91
2022/03/02 07:41:10;;;;;;;27.30;12.35;;;13.50;39.90;;;;;;5047390;28;20056;-91
2022/03/02 07:43:38;;;;;;;24.20;10.20;;;13.50;40.00;;;;;;5047613;28;20345;-90
2022/03/02 07:46:13;;;;;;;23.38;9.40;;;13.60;39.80;;;;;;5025687;28;20029;-91
2022/03/02 07:48:39;;;;;;;24.50;8.82;;;13.60;39.50;;;;;;5044626;28;20140;-91
2022/03/02 07:51:07;;;;;;;17.80;7.93;;;13.70;39.30;;;;;;5044393;28;20037;-90
2022/03/02 07:53:42;;;;;;;13.73;6.93;;;13.70;39.60;;;;;;5011151;28;20098;-91
2022/03/02 07:56:10;;;;;;;18.98;7.30;;;13.80;38.90;;;;;;5044332;28;20882;-87
2022/03/02 07:58:40;;;;;;;17.48;7.47;;;13.80;38.60;;;;;;5043298;28;20059;-90
2022/03/02 08:01:13;;;;;;;20.48;7.15;;;13.80;38.60;;;;;;5043763;28;20033;-90
2022/03/02 08:03:41;;;;;;;18.58;6.70;;;13.80;38.20;;;;;;5041712;28;20519;-90
2022/03/02 08:06:09;;;;;;;15.82;6.85;;;13.90;38.10;;;;;;5020241;28;20057;-86
2022/03/02 08:08:38;;;;;;;19.15;6.32;;;13.90;38.50;;;;;;5045702;28;20545;-90
2022/03/02 08:11:05;;;;;;;16.23;5.90;;;13.90;38.10;;;;;;5044202;28;20030;-90
2022/03/02 08:13:33;;;;;;;17.65;6.30;;;13.90;38.20;;;;;;5026312;28;20041;-91
2022/03/02 08:15:59;;;;;;;20.80;6.38;;;13.90;38.10;;;;;;5011581;28;20045;-88
2022/03/02 08:18:26;;;;;;;19.67;6.68;;;13.90;37.80;;;;;;5043894;28;20029;-90
2022/03/02 08:20:54;;;;;;;21.83;5.95;;;13.90;37.70;;;;;;5010609;28;20044;-89
2022/03/02 08:23:21;;;;;;;15.07;6.00;;;13.80;37.70;;;;;;5043692;28;20064;-89
2022/03/02 08:25:52;;;;;;;15.93;6.25;;;13.80;37.70;;;;;;5029379;28;20230;-86
2022/03/02 08:28:19;;;;;;;17.95;6.97;;;13.80;37.60;;;;;;5046963;28;20448;-91
2022/03/02 08:30:48;;;;;;;20.48;6.88;;;13.80;37.90;;;;;;5029481;28;20545;-90
2022/03/02 08:33:21;;;;;;;14.35;6.50;;;13.70;37.80;;;;;;4998106;28;20403;-89
2022/03/02 08:35:50;;;;;;;21.33;6.15;;;13.70;38.10;;;;;;5034030;28;20144;-85
2022/03/02 08:38:16;;;;;;;11.20;6.07;;;13.70;37.80;;;;;;5064183;28;20041;-90
2022/03/02 08:40:43;;;;;;;16.90;6.43;;;13.60;38.00;;;;;;5058915;28;20068;-89
2022/03/02 08:43:09;;;;;;;14.60;6.00;;;13.70;37.80;;;;;;5045924;28;20037;-88
2022/03/02 08:45:35;;;;;;;14.13;5.63;;;13.60;37.80;;;;;;5047048;28;20121;-88
2022/03/02 08:48:04;;;;;;;22.85;7.03;;;13.60;38.00;;;;;;5016566;28;20586;-90
2022/03/02 08:50:31;;;;;;;15.38;6.10;;;13.60;38.00;;;;;;5048713;28;20032;-88
2022/03/02 08:52:57;;;;;;;16.58;7.78;;;13.60;38.10;;;;;;5023894;28;20030;-91
2022/03/02 08:55:29;;;;;;;20.10;7.15;;;13.50;38.10;;;;;;5024596;28;20083;-89
2022/03/02 08:57:55;;;;;;;23.98;6.78;;;13.50;38.30;;;;;;5028884;28;20048;-90
2022/03/02 09:00:21;;;;;;;17.65;7.30;;;13.40;38.10;;;;;;5046198;28;20573;-89
2022/03/02 09:02:47;;;;;;;18.85;7.10;;;13.40;38.20;;;;;;5029727;28;20033;-91
2022/03/02 09:05:13;;;;;;;18.95;7.32;;;13.40;38.30;;;;;;5046016;28;20054;-91
2022/03/02 09:07:40;;;;;;;23.95;8.02;;;13.40;38.60;;;;;;5041786;28;20512;-90
2022/03/02 09:10:07;;;;;;;18.95;7.93;;;13.40;38.50;;;;;;5046003;28;20025;-90
2022/03/02 09:12:33;;;;;;;21.35;7.95;;;13.30;38.50;;;;;;5046955;28;20036;-91
2022/03/02 09:15:00;;;;;;;16.60;7.38;;;13.30;38.60;;;;;;5046294;28;20025;-89
2022/03/02 09:17:25;;;;;;;18.77;7.25;;;13.30;38.40;;;;;;5050298;28;20023;-90
2022/03/02 09:19:53;;;;;;;26.98;9.77;;;13.30;38.50;;;;;;5045070;28;20045;-90
2022/03/02 09:22:22;;;;;;;35.50;15.27;;;13.20;38.30;;;;;;5028726;28;20029;-91
2022/03/02 09:24:48;;;;;;;24.27;11.32;;;13.20;38.50;;;;;;5024182;28;20077;-85
2022/03/02 09:27:16;;;;;;;27.42;10.40;;;13.20;38.50;;;;;;5047943;28;20033;-91
2022/03/02 09:29:45;;;;;;;19.40;8.80;;;13.10;38.70;;;;;;5047804;28;20064;-91
2022/03/02 09:32:12;;;;;;;21.58;9.32;;;13.20;38.60;;;;;;5029097;28;21121;-91
2022/03/02 09:34:43;;;;;;;22.63;8.82;;;13.10;38.60;;;;;;5046121;28;20162;-89
2022/03/02 09:37:10;;;;;;;18.23;7.75;;;13.10;38.70;;;;;;5044211;28;20033;-87
2022/03/02 09:39:36;;;;;;;18.80;8.20;;;13.10;38.60;;;;;;5031360;28;20121;-92
2022/03/02 09:42:11;;;;;;;17.20;7.68;;;13.10;38.40;;;;;;5067280;28;20057;-87
2022/03/02 09:44:43;;;;;;;14.18;7.03;;;13.00;38.50;;;;;;5021307;28;20045;-84
2022/03/02 09:47:18;;;;;;;16.05;7.60;;;13.00;38.70;;;;;;5027471;28;20376;-87
2022/03/02 09:50:03;;;;;;;20.15;7.10;;;13.00;38.70;;;;;;5047961;28;20044;-88
2022/03/02 09:52:34;;;;;;;16.00;7.28;;;12.90;38.60;;;;;;5025998;28;20045;-86
2022/03/02 09:55:00;;;;;;;17.48;6.38;;;13.00;38.50;;;;;;5013610;28;20033;-90
2022/03/02 09:57:27;;;;;;;11.23;6.72;;;12.90;38.40;;;;;;5047935;28;20044;-92
2022/03/02 09:59:56;;;;;;;15.90;7.15;;;12.90;38.40;;;;;;5028938;28;20162;-90
2022/03/02 10:02:37;;;;;;;21.90;6.85;;;12.80;38.30;;;;;;5045524;28;20585;-92
2022/03/02 10:05:06;;;;;;;19.25;7.60;;;12.80;38.60;;;;;;5028971;28;20029;-90
2022/03/02 10:07:40;;;;;;;18.13;6.63;;;12.80;38.60;;;;;;5027395;28;20140;-85
2022/03/02 10:10:22;;;;;;;19.25;8.15;;;12.80;38.50;;;;;;5028336;28;20565;-92
2022/03/02 10:12:48;;;;;;;17.75;7.95;;;12.70;38.80;;;;;;5047503;28;20035;-86
2022/03/02 10:15:14;;;;;;;22.52;8.45;;;12.70;39.00;;;;;;5049529;28;20056;-92
2022/03/02 10:17:52;;;;;;;21.77;8.93;;;12.70;39.20;;;;;;5030630;28;20025;-86
2022/03/02 10:20:24;;;;;;;23.65;7.90;;;12.60;39.10;;;;;;5011726;28;20587;-90
2022/03/02 10:23:17;;;;;;;16.02;7.93;;;12.60;38.90;;;;;;5043559;28;20033;-86
2022/03/02 10:26:01;;;;;;;17.33;7.00;;;12.60;39.10;;;;;;5010128;28;20033;-87
2022/03/02 10:28:28;;;;;;;20.15;7.88;;;12.60;39.60;;;;;;5026938;28;20064;-86
2022/03/02 10:31:29;;;;;;;17.88;7.00;;;12.60;39.80;;;;;;5042200;28;20124;-86
2022/03/02 10:34:01;;;;;;;17.83;7.15;;;12.60;40.20;;;;;;5044799;28;20063;-85
2022/03/02 10:36:29;;;;;;;23.02;6.85;;;12.60;40.30;;;;;;5022694;28;20111;-84
2022/03/02 10:38:59;;;;;;;15.30;7.40;;;12.60;40.50;;;;;;5012591;28;20033;-86
2022/03/02 10:41:27;;;;;;;13.80;7.35;;;12.60;40.50;;;;;;5012069;28;20057;-86
2022/03/02 10:44:21;;;;;;;19.35;7.43;;;12.60;40.30;;;;;;5057795;28;20029;-82
2022/03/02 10:46:59;;;;;;;15.73;6.78;;;12.60;40.40;;;;;;5035478;28;20045;-81
2022/03/02 10:49:27;;;;;;;14.20;7.13;;;12.60;40.40;;;;;;5044956;28;20047;-85
2022/03/02 10:51:56;;;;;;;12.90;6.65;;;12.60;40.40;;;;;;5030404;28;20484;-87
2022/03/02 10:54:24;;;;;;;18.25;6.72;;;12.60;40.60;;;;;;5044251;28;20037;-86
2022/03/02 10:56:54;;;;;;;12.20;6.88;;;12.60;40.40;;;;;;5027212;28;20048;-84
2022/03/02 10:59:23;;;;;;;13.43;6.78;;;12.60;40.50;;;;;;5043713;28;20424;-84
2022/03/02 11:01:53;;;;;;;15.07;6.15;;;12.60;40.40;;;;;;5043250;28;20063;-83
2022/03/02 11:04:21;;;;;;;12.07;6.22;;;12.60;40.50;;;;;;5025659;28;20419;-85
2022/03/02 11:06:48;;;;;;;15.05;6.55;;;12.60;40.50;;;;;;5023898;28;20037;-84
2022/03/02 11:09:16;;;;;;;15.20;6.90;;;12.70;40.70;;;;;;5009089;28;20469;-85
2022/03/02 11:11:43;;;;;;;16.33;6.93;;;12.70;40.50;;;;;;5045203;28;20417;-85
2022/03/02 11:14:09;;;;;;;18.30;7.13;;;12.70;40.30;;;;;;5025964;28;20037;-85
2022/03/02 11:16:36;;;;;;;19.33;6.40;;;12.70;40.00;;;;;;5042880;28;20029;-86
2022/03/02 11:19:14;;;;;;;16.35;6.68;;;12.70;40.20;;;;;;5026422;28;20124;-86
2022/03/02 11:21:42;;;;;;;14.88;6.90;;;12.70;40.40;;;;;;5027750;28;20116;-87
2022/03/02 11:24:13;;;;;;;10.77;5.85;;;12.70;40.10;;;;;;5043462;28;20512;-86
2022/03/02 11:26:41;;;;;;;11.20;6.50;;;12.80;39.80;;;;;;5039569;28;20027;-87
2022/03/02 11:29:18;;;;;;;12.15;6.38;;;12.80;39.70;;;;;;5027864;28;20036;-84
2022/03/02 11:31:54;;;;;;;12.82;6.72;;;12.70;39.80;;;;;;5045149;28;20127;-87
2022/03/02 11:34:24;;;;;;;17.25;7.22;;;12.70;39.60;;;;;;5010223;28;20454;-88
2022/03/02 11:36:53;;;;;;;13.65;6.50;;;12.70;39.40;;;;;;5025616;28;20407;-85
2022/03/02 11:39:23;;;;;;;19.23;6.95;;;12.70;39.40;;;;;;5022943;28;20029;-88
2022/03/02 11:41:57;;;;;;;23.48;7.78;;;12.70;39.60;;;;;;5023874;28;20161;-83
2022/03/02 11:44:30;;;;;;;15.45;7.55;;;12.70;39.20;;;;;;5037824;28;20060;-86
2022/03/02 11:46:58;;;;;;;19.58;6.40;;;12.70;39.40;;;;;;5025867;28;20080;-86
2022/03/02 11:49:44;;;;;;;16.20;6.82;;;12.70;39.60;;;;;;5030858;28;20051;-83
2022/03/02 11:52:12;;;;;;;;;;;12.70;39.50;;;;;;5033079;28;20057;-81
2022/03/02 11:54:49;;;;;;;18.55;7.65;;;12.70;39.40;;;;;;5064359;28;19917;-85
2022/03/02 11:57:17;;;;;;;11.00;6.57;;;12.80;39.40;;;;;;5007214;28;20052;-85
2022/03/02 11:59:44;;;;;;;19.48;7.70;;;12.70;39.40;;;;;;5023641;28;20075;-86
2022/03/02 12:02:19;;;;;;;14.40;6.55;;;12.70;39.40;;;;;;5029911;28;20036;-83
2022/03/02 12:05:05;;;;;;;21.02;7.53;;;12.70;39.30;;;;;;5037127;28;20384;-87
2022/03/02 12:07:46;;;;;;;17.48;7.20;;;12.70;39.30;;;;;;5047275;28;20503;-90
2022/03/02 12:10:25;;;;;;;17.92;7.30;;;12.70;39.40;;;;;;5046447;28;20423;-87
2022/03/02 12:12:52;;;;;;;13.07;6.65;;;12.70;39.50;;;;;;5046106;28;20044;-87
2022/03/02 12:15:20;;;;;;;16.13;6.68;;;12.70;39.50;;;;;;5026878;28;20037;-87
2022/03/02 12:17:48;;;;;;;21.23;6.90;;;12.70;39.40;;;;;;5045818;28;20033;-88
2022/03/02 12:20:20;;;;;;;16.45;6.03;;;12.80;39.30;;;;;;5045144;28;20037;-87
2022/03/02 12:22:49;;;;;;;14.52;6.15;;;12.70;39.40;;;;;;5012859;28;20025;-87
2022/03/02 12:25:18;;;;;;;13.95;6.05;;;12.70;39.40;;;;;;5008608;28;20033;-83
2022/03/02 12:28:04;;;;;;;17.85;6.68;;;12.70;39.50;;;;;;5047335;28;20037;-88
2022/03/02 12:30:33;;;;;;;17.30;6.38;;;12.70;39.30;;;;;;5046197;28;20059;-87
2022/03/02 12:33:00;;;;;;;15.05;6.50;;;12.70;39.30;;;;;;5026149;28;20088;-87
2022/03/02 12:35:27;;;;;;;17.52;6.63;;;12.70;39.10;;;;;;5029102;28;20021;-87
2022/03/02 12:37:59;;;;;;;18.20;6.40;;;12.70;39.20;;;;;;5046677;28;20064;-87
2022/03/02 12:40:28;;;;;;;30.27;6.63;;;12.70;39.30;;;;;;5029585;28;20112;-86
2022/03/02 12:42:55;;;;;;;16.77;6.05;;;12.70;39.30;;;;;;5011493;28;20029;-88
2022/03/02 12:45:22;;;;;;;15.52;6.50;;;12.70;39.40;;;;;;5045994;28;20048;-85
2022/03/02 12:47:51;;;;;;;10.70;5.60;;;12.70;39.40;;;;;;5049048;28;20120;-86